Time;durP1;ratioP1;P1;durP2;ratioP2;P2;SDS_P1;SDS_P2;PMS_P1;PMS_P2;Temp;Humidity;BMP_temperature;BMP_pressure;BME280_temperature;BME280_humidity;BME280_pressure;Samples;Min_cycle;Max_cycle;Signal;HPM_P1;HPM_P2
2022/09/18 00:01:59;;;;;;;0.00;0.00;;;;;;;15.66;48.77;101820.09;7358801;19;20588;-58
2022/09/18 00:04:26;;;;;;;0.00;0.00;;;;;;;15.65;48.99;101824.50;7360026;19;20034;-59
2022/09/18 00:06:51;;;;;;;0.00;0.00;;;;;;;15.54;48.53;101805.44;7368156;19;20420;-57
2022/09/18 00:09:17;;;;;;;0.00;0.00;;;;;;;15.61;48.53;101828.06;7364580;19;20074;-59
2022/09/18 00:11:45;;;;;;;0.00;0.00;;;;;;;15.59;49.00;101822.00;7365240;19;20015;-59
2022/09/18 00:14:15;;;;;;;0.10;0.10;;;;;;;15.61;49.04;101830.69;7359279;19;20018;-59
2022/09/18 00:16:41;;;;;;;0.00;0.00;;;;;;;15.62;49.09;101828.97;7364330;19;20042;-59
2022/09/18 00:19:07;;;;;;;0.00;0.00;;;;;;;15.64;49.21;101829.81;7364675;19;20373;-59
2022/09/18 00:21:34;;;;;;;0.00;0.00;;;;;;;15.61;50.12;101832.47;7364827;19;20495;-59
2022/09/18 00:24:00;;;;;;;0.00;0.00;;;;;;;15.68;48.95;101834.09;7365370;19;20010;-58
2022/09/18 00:26:26;;;;;;;0.00;0.00;;;;;;;15.70;49.12;101833.13;7363738;19;20752;-57
2022/09/18 00:28:56;;;;;;;0.00;0.00;;;;;;;15.71;48.87;101824.34;7366121;19;20023;-58
2022/09/18 00:31:29;;;;;;;0.00;0.00;;;;;;;15.73;49.37;101833.06;7364852;19;20021;-58
2022/09/18 00:33:56;;;;;;;0.00;0.00;;;;;;;15.72;49.61;101826.06;7364987;19;20014;-58
2022/09/18 00:36:22;;;;;;;0.00;0.00;;;;;;;15.68;48.99;101824.44;7366603;19;20011;-59
2022/09/18 00:38:48;;;;;;;0.00;0.00;;;;;;;15.65;49.67;101828.91;7365395;19;20011;-58
2022/09/18 00:41:16;;;;;;;0.00;0.00;;;;;;;15.61;49.23;101828.06;7364872;19;21584;-59
2022/09/18 00:43:42;;;;;;;0.00;0.00;;;;;;;15.55;49.72;101822.97;7365324;19;20076;-58
2022/09/18 00:46:26;;;;;;;0.00;0.00;;;;;;;15.53;47.71;101824.78;7364856;19;21443;-58
2022/09/18 00:48:57;;;;;;;0.00;0.00;;;;;;;15.48;49.20;101826.66;7364030;19;20801;-59
2022/09/18 00:51:24;;;;;;;0.00;0.00;;;;;;;15.44;50.45;101822.38;7365804;19;20068;-57
2022/09/18 00:53:59;;;;;;;0.00;0.00;;;;;;;15.46;49.14;101823.19;7364130;19;20037;-59
2022/09/18 00:56:26;;;;;;;0.00;0.00;;;;;;;15.39;50.19;101817.22;7365771;19;20026;-58
2022/09/18 00:58:51;;;;;;;0.00;0.00;;;;;;;15.35;49.83;101814.69;7365524;19;20035;-58
2022/09/18 01:01:17;;;;;;;0.00;0.00;;;;;;;15.32;50.53;101813.88;7365222;19;20010;-59
2022/09/18 01:03:42;;;;;;;0.00;0.00;;;;;;;15.28;50.14;101814.84;7364794;19;20827;-59
2022/09/18 01:06:29;;;;;;;0.00;0.00;;;;;;;15.28;48.41;101809.59;7365581;19;20014;-58
2022/09/18 01:09:07;;;;;;;0.00;0.00;;;;;;;15.26;48.85;101816.69;7363386;19;20011;-59
2022/09/18 01:11:54;;;;;;;0.00;0.00;;;;;;;15.24;49.21;101801.81;7360304;19;20455;-59
2022/09/18 01:14:22;;;;;;;0.00;0.00;;;;;;;15.22;50.29;101804.50;7357314;19;20375;-59
2022/09/18 01:17:05;;;;;;;0.00;0.00;;;;;;;15.23;48.68;101800.94;7361726;19;20454;-58
2022/09/18 01:20:06;;;;;;;0.00;0.00;;;;;;;15.20;48.71;101798.38;7361239;19;20014;-59
2022/09/18 01:22:51;;;;;;;0.00;0.00;;;;;;;15.21;48.41;101800.13;7259867;19;2004216;-59
2022/09/18 01:25:32;;;;;;;0.00;0.00;;;;;;;15.16;49.44;101790.63;7365761;19;20013;-58
2022/09/18 01:28:10;;;;;;;0.00;0.00;;;;;;;15.08;49.13;101790.78;7364658;19;20010;-58
2022/09/18 01:30:42;;;;;;;0.00;0.00;;;;;;;15.08;50.21;101789.94;7361967;19;20114;-58
2022/09/18 01:33:23;;;;;;;0.00;0.00;;;;;;;14.93;50.34;101778.00;7363716;19;20829;-59
2022/09/18 01:35:53;;;;;;;0.00;0.00;;;;;;;14.99;50.89;101791.00;7364351;19;20141;-59
2022/09/18 01:38:30;;;;;;;0.00;0.00;;;;;;;14.86;50.85;101769.41;7364320;19;20014;-58
2022/09/18 01:41:00;;;;;;;;;;;;;;;14.94;47.57;101783.22;7364168;19;20029;-59
2022/09/18 01:43:28;;;;;;;0.00;0.00;;;;;;;14.88;51.02;101783.38;7363920;19;19960;-59
2022/09/18 01:45:58;;;;;;;0.00;0.00;;;;;;;14.86;51.30;101792.22;7363085;19;20015;-58
2022/09/18 01:48:49;;;;;;;0.00;0.00;;;;;;;14.84;49.02;101792.22;7359980;19;20031;-58
2022/09/18 01:51:43;;;;;;;0.00;0.00;;;;;;;14.77;49.57;101781.00;7261866;19;2004302;-58
2022/09/18 01:54:20;;;;;;;0.00;0.00;;;;;;;14.71;50.19;101786.41;7362920;19;20549;-59
2022/09/18 01:56:51;;;;;;;0.00;0.00;;;;;;;14.69;51.17;101782.91;7359380;19;20014;-59
2022/09/18 01:59:25;;;;;;;0.00;0.00;;;;;;;14.64;51.26;101774.28;7351918;19;20022;-58
2022/09/18 02:01:54;;;;;;;0.00;0.00;;;;;;;14.62;51.58;101773.47;7355514;19;20031;-59
2022/09/18 02:04:24;;;;;;;0.00;0.00;;;;;;;14.59;51.61;101775.28;7364389;19;20026;-58
2022/09/18 02:07:06;;;;;;;0.00;0.00;;;;;;;14.61;50.87;101784.88;7359153;19;20031;-58
2022/09/18 02:09:32;;;;;;;0.00;0.00;;;;;;;14.56;52.17;101781.47;7357199;19;20010;-59
2022/09/18 02:12:00;;;;;;;0.00;0.00;;;;;;;14.51;52.45;101772.84;7361637;19;20705;-59
2022/09/18 02:14:33;;;;;;;0.00;0.00;;;;;;;14.53;52.37;101784.16;7359593;19;20002;-59
2022/09/18 02:17:11;;;;;;;0.00;0.00;;;;;;;14.48;51.29;101773.75;7361377;19;20011;-59
2022/09/18 02:19:40;;;;;;;0.00;0.00;;;;;;;14.50;52.52;101776.38;7360131;19;20458;-58
2022/09/18 02:22:16;;;;;;;0.00;0.00;;;;;;;14.49;51.24;101775.47;7360979;19;20006;-59
2022/09/18 02:24:44;;;;;;;0.00;0.00;;;;;;;14.48;52.37;101778.16;7359630;19;20007;-58
2022/09/18 02:27:13;;;;;;;0.00;0.00;;;;;;;14.47;52.26;101776.38;7361693;19;20015;-59
2022/09/18 02:29:42;;;;;;;0.00;0.00;;;;;;;14.46;52.04;101777.28;7356632;19;20041;-59
2022/09/18 02:32:07;;;;;;;0.00;0.00;;;;;;;14.42;52.58;101767.75;7362348;19;20506;-59
2022/09/18 02:34:33;;;;;;;0.00;0.00;;;;;;;14.42;52.63;101765.97;7365362;19;20019;-59
2022/09/18 02:37:19;;;;;;;0.00;0.00;;;;;;;14.42;52.67;101762.47;7365758;19;20070;-58
2022/09/18 02:40:09;;;;;;;0.00;0.00;;;;;;;14.42;51.77;101757.22;7365755;19;20081;-58
2022/09/18 02:43:13;;;;;;;0.00;0.00;;;;;;;14.42;50.85;101757.22;7366772;19;20025;-59
2022/09/18 02:45:50;;;;;;;0.00;0.00;;;;;;;14.39;53.02;101747.63;7263608;19;2004574;-59
2022/09/18 02:48:28;;;;;;;0.00;0.00;;;;;;;14.40;51.56;101759.03;7367638;19;20775;-59
2022/09/18 02:51:02;;;;;;;;;;;;;;;14.39;49.00;101757.28;7366475;19;20627;-59
2022/09/18 02:53:39;;;;;;;0.00;0.00;;;;;;;14.36;52.40;101746.84;7365329;19;19954;-57
2022/09/18 02:56:16;;;;;;;0.00;0.00;;;;;;;14.34;52.13;101744.22;7367897;19;20011;-58
2022/09/18 02:58:47;;;;;;;0.00;0.00;;;;;;;14.28;52.89;101747.00;7363811;19;20395;-58
2022/09/18 03:01:15;;;;;;;0.00;0.00;;;;;;;14.22;52.77;101745.38;7364434;19;20021;-59
2022/09/18 03:03:40;;;;;;;0.00;0.00;;;;;;;14.27;53.42;101756.66;7355872;19;20029;-59
2022/09/18 03:06:07;;;;;;;0.10;0.10;;;;;;;14.22;53.59;101745.38;7368048;19;20014;-59
2022/09/18 03:08:33;;;;;;;0.00;0.00;;;;;;;14.27;53.50;101753.16;7364417;19;20027;-58
2022/09/18 03:10:59;;;;;;;0.00;0.00;;;;;;;14.26;53.71;101749.66;7367415;19;20002;-58
2022/09/18 03:13:24;;;;;;;0.00;0.00;;;;;;;14.27;53.14;101746.13;7363219;19;20018;-58
2022/09/18 03:15:50;;;;;;;0.00;0.00;;;;;;;14.26;53.14;101749.66;7367402;19;20021;-59
2022/09/18 03:18:15;;;;;;;0.00;0.00;;;;;;;14.25;53.69;101758.47;7359689;19;20106;-59
2022/09/18 03:20:42;;;;;;;0.00;0.00;;;;;;;14.26;53.52;101762.81;7367348;19;20014;-58
2022/09/18 03:23:09;;;;;;;0.00;0.00;;;;;;;14.28;53.81;101763.63;7363947;19;20476;-58
2022/09/18 03:25:34;;;;;;;0.00;0.00;;;;;;;14.17;53.79;101749.84;7367276;19;20015;-59
2022/09/18 03:28:00;;;;;;;0.00;0.00;;;;;;;14.27;53.86;101764.53;7366878;19;20010;-59
2022/09/18 03:30:26;;;;;;;0.00;0.00;;;;;;;14.30;53.37;101763.63;7368171;19;20019;-59
2022/09/18 03:32:52;;;;;;;0.00;0.00;;;;;;;14.28;53.99;101766.25;7367016;19;20621;-58
2022/09/18 03:35:18;;;;;;;0.00;0.00;;;;;;;14.30;53.97;101765.38;7366300;19;20010;-59
2022/09/18 03:37:43;;;;;;;0.00;0.00;;;;;;;14.27;53.94;101763.66;7365891;19;20015;-56
2022/09/18 03:40:09;;;;;;;0.00;0.00;;;;;;;14.25;54.01;101755.81;7367580;19;20029;-59
2022/09/18 03:42:34;;;;;;;0.00;0.00;;;;;;;14.23;53.88;101760.22;7363641;19;20010;-59
2022/09/18 03:44:59;;;;;;;0.00;0.00;;;;;;;14.22;53.54;101757.66;7367089;19;20010;-59
2022/09/18 03:47:25;;;;;;;0.00;0.00;;;;;;;14.20;54.10;101757.69;7365311;19;20006;-59
2022/09/18 03:49:51;;;;;;;0.00;0.00;;;;;;;14.09;54.21;101738.66;7364354;19;20081;-58
2022/09/18 03:52:16;;;;;;;0.03;0.03;;;;;;;14.01;54.24;101732.69;7365533;19;20025;-59
2022/09/18 03:54:42;;;;;;;0.00;0.00;;;;;;;14.16;54.38;101750.75;7366897;19;20093;-58
2022/09/18 03:57:07;;;;;;;0.00;0.00;;;;;;;14.13;54.42;101749.94;7366374;19;20006;-59
2022/09/18 03:59:33;;;;;;;0.00;0.00;;;;;;;14.12;54.44;101759.59;7366999;19;20558;-58
2022/09/18 04:01:58;;;;;;;0.00;0.00;;;;;;;14.10;54.45;101756.16;7365760;19;20017;-59
2022/09/18 04:04:24;;;;;;;0.00;0.00;;;;;;;14.07;54.64;101750.94;7366994;19;20030;-59
2022/09/18 04:06:49;;;;;;;0.00;0.00;;;;;;;14.05;54.41;101751.88;7364722;19;20021;-59
2022/09/18 04:09:15;;;;;;;0.00;0.00;;;;;;;14.03;54.70;101749.28;7366118;19;20760;-58
2022/09/18 04:11:41;;;;;;;0.00;0.00;;;;;;;14.00;54.84;101744.09;7363826;19;20070;-57
2022/09/18 04:14:07;;;;;;;0.00;0.00;;;;;;;13.98;54.64;101748.50;7368603;19;20011;-59
2022/09/18 04:16:32;;;;;;;0.00;0.00;;;;;;;13.88;54.77;101734.69;7363787;19;20007;-58
2022/09/18 04:18:58;;;;;;;0.00;0.00;;;;;;;13.95;54.74;101751.22;7365276;19;20045;-58
2022/09/18 04:21:23;;;;;;;0.00;0.00;;;;;;;13.93;54.67;101759.09;7364131;19;20010;-59
2022/09/18 04:23:49;;;;;;;0.00;0.00;;;;;;;13.90;54.61;101750.44;7366979;19;20018;-59
2022/09/18 04:26:14;;;;;;;0.00;0.00;;;;;;;13.91;54.89;101749.53;7365028;19;20014;-59
2022/09/18 04:28:40;;;;;;;0.00;0.00;;;;;;;13.88;54.74;101760.94;7366067;19;20014;-59
2022/09/18 04:31:05;;;;;;;0.00;0.00;;;;;;;13.84;55.25;101754.03;7363952;19;20393;-59
2022/09/18 04:33:31;;;;;;;0.00;0.00;;;;;;;13.83;54.99;101754.06;7365561;19;20006;-58
2022/09/18 04:35:56;;;;;;;0.00;0.00;;;;;;;13.68;55.43;101728.97;7364255;19;20041;-57
2022/09/18 04:38:26;;;;;;;0.00;0.00;;;;;;;13.80;55.62;101762.00;7365864;19;20089;-59
2022/09/18 04:40:59;;;;;;;0.00;0.00;;;;;;;13.81;54.13;101754.09;7365586;19;20028;-59
2022/09/18 04:43:26;;;;;;;0.00;0.00;;;;;;;13.76;55.79;101754.19;7365626;19;20010;-60
2022/09/18 04:45:52;;;;;;;0.00;0.00;;;;;;;13.77;55.67;101758.53;7363827;19;20027;-58
2022/09/18 04:48:19;;;;;;;0.00;0.00;;;;;;;13.77;55.41;101763.78;7365980;19;20010;-57
2022/09/18 04:50:45;;;;;;;0.00;0.00;;;;;;;13.77;55.81;101763.78;7362288;19;20017;-59
2022/09/18 04:53:12;;;;;;;0.00;0.00;;;;;;;13.71;55.91;101758.66;7365963;19;20414;-58
2022/09/18 04:55:38;;;;;;;0.00;0.00;;;;;;;13.67;55.35;101754.34;7362142;19;20023;-58
2022/09/18 04:58:04;;;;;;;0.00;0.00;;;;;;;13.58;55.94;101737.91;7365756;19;20014;-58
2022/09/18 05:00:29;;;;;;;0.00;0.00;;;;;;;13.70;56.15;101762.19;7363156;19;20022;-58
2022/09/18 05:02:55;;;;;;;0.00;0.00;;;;;;;13.69;55.68;101762.22;7363362;19;20003;-59
2022/09/18 05:05:20;;;;;;;0.00;0.00;;;;;;;13.67;55.77;101759.59;7365807;19;20010;-59
2022/09/18 05:07:46;;;;;;;0.00;0.00;;;;;;;13.67;55.78;101766.59;7364868;19;20014;-59
2022/09/18 05:10:11;;;;;;;0.00;0.00;;;;;;;13.66;55.97;101764.88;7363776;19;20082;-59
2022/09/18 05:12:41;;;;;;;0.00;0.00;;;;;;;13.61;55.65;101756.22;7360529;19;20021;-58
2022/09/18 05:15:07;;;;;;;0.00;0.00;;;;;;;13.62;55.57;101764.06;7363746;19;20015;-58
2022/09/18 05:17:32;;;;;;;0.00;0.00;;;;;;;13.58;55.96;101769.38;7363048;19;20636;-59
2022/09/18 05:19:58;;;;;;;0.00;0.00;;;;;;;13.52;55.82;101767.75;7362669;19;20078;-59
2022/09/18 05:22:23;;;;;;;0.00;0.00;;;;;;;13.47;56.24;101772.22;7364454;19;20014;-57
2022/09/18 05:24:49;;;;;;;0.00;0.00;;;;;;;13.41;55.76;101764.44;7364199;19;20344;-59
2022/09/18 05:27:14;;;;;;;0.00;0.00;;;;;;;13.38;55.95;101777.63;7361543;19;20014;-59
2022/09/18 05:29:40;;;;;;;0.00;0.00;;;;;;;13.32;56.43;101767.22;7363414;19;20014;-58
2022/09/18 05:32:06;;;;;;;0.00;0.00;;;;;;;13.28;56.38;101771.69;7363055;19;20007;-59
2022/09/18 05:34:31;;;;;;;0.00;0.00;;;;;;;13.10;56.42;101743.97;7364983;19;20010;-59
2022/09/18 05:36:57;;;;;;;0.00;0.00;;;;;;;13.22;55.94;101770.00;7364452;19;20006;-59
2022/09/18 05:39:22;;;;;;;0.00;0.00;;;;;;;13.17;56.38;101766.56;7364247;19;20011;-59
2022/09/18 05:41:49;;;;;;;0.00;0.00;;;;;;;13.14;56.14;101769.25;7363977;19;20025;-59
2022/09/18 05:44:15;;;;;;;0.00;0.00;;;;;;;13.06;55.93;101757.13;7364844;19;20099;-59
2022/09/18 05:46:40;;;;;;;0.00;0.00;;;;;;;13.04;56.40;101765.03;7363003;19;20073;-59
2022/09/18 05:49:06;;;;;;;0.00;0.00;;;;;;;12.99;56.72;101772.13;7361162;19;20019;-59
2022/09/18 05:51:31;;;;;;;0.00;0.00;;;;;;;12.92;56.52;101771.31;7363064;19;20492;-58
2022/09/18 05:53:57;;;;;;;0.00;0.00;;;;;;;12.81;56.48;101769.75;7362604;19;20017;-59
2022/09/18 05:56:23;;;;;;;0.00;0.00;;;;;;;12.78;56.88;101781.16;7364760;19;20006;-58
2022/09/18 05:58:48;;;;;;;0.00;0.00;;;;;;;12.64;56.88;101765.63;7353704;19;20025;-58
2022/09/18 06:01:13;;;;;;;0.00;0.00;;;;;;;12.65;57.01;101771.75;7362096;19;20481;-59
2022/09/18 06:03:39;;;;;;;0.00;0.00;;;;;;;12.60;57.08;101774.41;7358066;19;20478;-58
2022/09/18 06:06:05;;;;;;;0.00;0.00;;;;;;;12.47;57.64;101757.16;7360219;19;20010;-58
2022/09/18 06:08:30;;;;;;;0.00;0.00;;;;;;;12.43;57.64;101760.69;7360130;19;20014;-58
2022/09/18 06:10:59;;;;;;;0.00;0.00;;;;;;;12.46;57.46;101786.84;7360478;19;20499;-58
2022/09/18 06:13:25;;;;;;;0.00;0.00;;;;;;;12.28;57.34;101756.53;7357929;19;20037;-59
2022/09/18 06:15:51;;;;;;;0.00;0.00;;;;;;;12.32;57.91;101780.94;7360235;19;20108;-58
2022/09/18 06:18:17;;;;;;;0.00;0.00;;;;;;;12.16;57.64;101767.13;7357718;19;20017;-59
2022/09/18 06:20:49;;;;;;;0.00;0.00;;;;;;;12.19;58.34;101781.06;7360875;19;20013;-58
2022/09/18 06:23:15;;;;;;;0.00;0.00;;;;;;;12.13;58.08;101788.13;7357658;19;20017;-58
2022/09/18 06:25:40;;;;;;;0.00;0.00;;;;;;;11.94;58.42;101759.53;7356644;19;20496;-59
2022/09/18 06:28:06;;;;;;;0.00;0.00;;;;;;;12.03;58.55;101787.38;7358744;19;20088;-57
2022/09/18 06:30:33;;;;;;;0.00;0.00;;;;;;;12.00;58.60;101781.28;7359328;19;20359;-60
2022/09/18 06:33:06;;;;;;;0.00;0.00;;;;;;;11.96;57.53;101783.06;7359863;19;20018;-58
2022/09/18 06:35:33;;;;;;;0.00;0.00;;;;;;;11.92;58.75;101784.88;7359243;19;20018;-59
2022/09/18 06:38:03;;;;;;;0.00;0.00;;;;;;;11.90;58.01;101786.63;7359507;19;20030;-58
2022/09/18 06:40:29;;;;;;;0.00;0.00;;;;;;;11.86;58.71;101791.91;7358479;19;20011;-59
2022/09/18 06:42:56;;;;;;;0.00;0.00;;;;;;;11.80;59.10;101795.41;7359034;19;20038;-58
2022/09/18 06:45:25;;;;;;;0.00;0.00;;;;;;;11.79;59.34;101801.53;7357392;19;20026;-58
2022/09/18 06:47:54;;;;;;;0.00;0.00;;;;;;;11.77;59.31;101802.47;7359570;19;20026;-59
2022/09/18 06:50:23;;;;;;;0.00;0.00;;;;;;;11.76;58.65;101803.31;7359369;19;20014;-58
2022/09/18 06:52:49;;;;;;;0.00;0.00;;;;;;;11.66;59.51;101803.44;7358013;19;20022;-59
2022/09/18 06:55:16;;;;;;;0.00;0.00;;;;;;;11.70;59.18;101810.34;7357669;19;20020;-59
2022/09/18 06:57:42;;;;;;;0.00;0.00;;;;;;;11.69;59.63;101818.22;7358666;19;20457;-58
2022/09/18 07:00:09;;;;;;;0.00;0.00;;;;;;;11.66;59.68;101820.88;7359799;19;20011;-59
2022/09/18 07:02:35;;;;;;;0.00;0.00;;;;;;;11.65;59.33;101816.50;7357790;19;20030;-59
2022/09/18 07:05:00;;;;;;;0.00;0.00;;;;;;;11.64;59.76;101820.88;7356638;19;20184;-59
2022/09/18 07:07:26;;;;;;;0.00;0.00;;;;;;;11.57;59.39;101813.97;7359773;19;20119;-58
2022/09/18 07:09:51;;;;;;;0.00;0.00;;;;;;;11.51;59.70;101802.72;7359251;19;20022;-56
2022/09/18 07:12:17;;;;;;;0.00;0.00;;;;;;;11.51;59.98;101802.72;7355313;19;20031;-58
2022/09/18 07:14:42;;;;;;;0.00;0.00;;;;;;;11.59;60.44;101817.44;7359043;19;20034;-57
2022/09/18 07:17:09;;;;;;;0.00;0.00;;;;;;;11.61;59.63;101814.81;7359323;19;20052;-59
2022/09/18 07:19:35;;;;;;;0.00;0.00;;;;;;;11.58;60.14;101815.72;7361491;19;20022;-57
2022/09/18 07:22:00;;;;;;;0.00;0.00;;;;;;;11.59;60.20;101820.06;7364153;19;20023;-59
2022/09/18 07:24:26;;;;;;;0.00;0.00;;;;;;;11.62;60.30;101822.66;7364839;19;20007;-59
2022/09/18 07:26:52;;;;;;;0.00;0.00;;;;;;;11.62;60.63;101820.03;7363853;19;20013;-58
2022/09/18 07:29:17;;;;;;;0.00;0.00;;;;;;;11.63;60.34;101816.53;7363042;19;20054;-58
2022/09/18 07:31:42;;;;;;;0.00;0.00;;;;;;;11.65;60.64;101820.00;7364753;19;20865;-58
2022/09/18 07:34:10;;;;;;;0.00;0.00;;;;;;;11.68;60.82;101822.59;7362890;19;20047;-58
2022/09/18 07:36:35;;;;;;;0.00;0.00;;;;;;;11.58;60.73;101805.25;7363947;19;20626;-58
2022/09/18 07:39:01;;;;;;;0.00;0.00;;;;;;;11.74;60.77;101828.66;7363170;19;20014;-59
2022/09/18 07:41:26;;;;;;;0.00;0.00;;;;;;;11.76;60.99;101826.88;7365565;19;20014;-57
2022/09/18 07:43:52;;;;;;;0.00;0.00;;;;;;;11.80;60.31;101824.22;7364476;19;20018;-56
2022/09/18 07:46:17;;;;;;;0.00;0.00;;;;;;;11.83;61.07;101821.59;7364347;19;20931;-58
2022/09/18 07:48:43;;;;;;;0.00;0.00;;;;;;;11.86;60.92;101818.06;7362477;19;20022;-59
2022/09/18 07:51:08;;;;;;;0.00;0.00;;;;;;;11.90;61.34;101817.16;7363641;19;20014;-59
2022/09/18 07:53:36;;;;;;;0.00;0.00;;;;;;;11.93;61.05;101820.63;7364977;19;20014;-59
2022/09/18 07:56:06;;;;;;;0.00;0.00;;;;;;;12.01;60.82;101830.13;7364933;19;20017;-59
2022/09/18 07:58:31;;;;;;;0.00;0.00;;;;;;;12.05;61.29;101821.38;7362268;19;20509;-59
2022/09/18 08:01:00;;;;;;;0.00;0.00;;;;;;;12.15;61.16;101828.25;7364634;19;20197;-59
2022/09/18 08:03:25;;;;;;;0.00;0.00;;;;;;;12.16;61.40;101822.97;7363617;19;20010;-59
2022/09/18 08:05:51;;;;;;;0.00;0.00;;;;;;;12.29;60.79;101830.72;7350613;19;20610;-59
2022/09/18 08:08:17;;;;;;;0.00;0.00;;;;;;;12.34;60.40;101824.53;7363446;19;20753;-57
2022/09/18 08:10:44;;;;;;;0.00;0.00;;;;;;;12.36;61.03;101811.41;7354081;19;20019;-58
2022/09/18 08:13:10;;;;;;;0.00;0.00;;;;;;;12.49;61.19;101815.63;7355113;19;20041;-59
2022/09/18 08:15:37;;;;;;;0.00;0.00;;;;;;;12.61;60.99;101823.31;7361137;19;20009;-59
2022/09/18 08:18:03;;;;;;;0.00;0.00;;;;;;;12.72;60.77;101815.31;7358842;19;20018;-59
2022/09/18 08:20:29;;;;;;;0.03;0.03;;;;;;;12.88;60.32;101813.38;7361581;19;20047;-57
2022/09/18 08:22:54;;;;;;;0.00;0.00;;;;;;;13.13;59.98;101819.97;7360076;19;20745;-58
2022/09/18 08:25:20;;;;;;;0.00;0.00;;;;;;;13.34;59.91;101815.31;7360291;19;20019;-59
2022/09/18 08:27:46;;;;;;;0.00;0.00;;;;;;;13.58;59.24;101814.00;7359170;19;20014;-59
2022/09/18 08:30:13;;;;;;;0.00;0.00;;;;;;;13.85;58.39;101812.66;7361266;19;20837;-59
2022/09/18 08:32:38;;;;;;;0.00;0.00;;;;;;;14.03;58.50;101807.91;7361298;19;20018;-59
2022/09/18 08:35:05;;;;;;;0.00;0.00;;;;;;;14.23;57.90;101799.63;7362205;19;20007;-59
2022/09/18 08:37:32;;;;;;;0.00;0.00;;;;;;;14.48;57.64;101804.44;7361403;19;20010;-59
2022/09/18 08:39:58;;;;;;;0.00;0.00;;;;;;;14.79;57.37;101810.75;7357899;19;20033;-58
2022/09/18 08:42:38;;;;;;;0.00;0.00;;;;;;;15.14;56.36;101809.06;7358800;19;20015;-59
2022/09/18 08:45:15;;;;;;;0.00;0.00;;;;;;;15.42;56.03;101811.03;7359542;19;20034;-59
2022/09/18 08:47:56;;;;;;;;;;;;;;;15.72;54.78;101809.41;7359034;19;20025;-58
2022/09/18 08:50:26;;;;;;;0.00;0.00;;;;;;;15.95;55.41;101817.53;7362294;19;19935;-58
2022/09/18 08:53:11;;;;;;;0.00;0.00;;;;;;;16.28;54.57;101807.00;7360692;19;20014;-59
2022/09/18 08:55:40;;;;;;;0.00;0.00;;;;;;;16.50;54.18;101821.25;7357856;19;20010;-59
2022/09/18 08:58:12;;;;;;;0.00;0.00;;;;;;;16.74;54.12;101819.69;7360420;19;20022;-59
2022/09/18 09:00:44;;;;;;;0.00;0.00;;;;;;;17.00;53.73;101807.47;7357484;19;20010;-59
2022/09/18 09:03:25;;;;;;;0.00;0.00;;;;;;;17.41;53.40;101816.69;7359676;19;20017;-58
2022/09/18 09:06:18;;;;;;;0.00;0.00;;;;;;;17.71;52.98;101820.06;7359434;19;20371;-59
2022/09/18 09:09:02;;;;;;;0.00;0.00;;;;;;;18.11;52.99;101835.41;7257918;19;2004284;-59
2022/09/18 09:11:53;;;;;;;0.00;0.00;;;;;;;18.44;52.46;101826.28;7356933;19;20014;-60
2022/09/18 09:14:37;;;;;;;0.00;0.00;;;;;;;18.77;51.43;101825.03;7357078;19;20150;-59
2022/09/18 09:17:34;;;;;;;0.10;0.10;;;;;;;19.13;51.22;101832.44;7358641;19;20022;-59
2022/09/18 09:20:21;;;;;;;0.00;0.00;;;;;;;19.48;50.87;101827.50;7255238;19;2004680;-58
2022/09/18 09:23:02;;;;;;;0.03;0.03;;;;;;;19.77;50.22;101827.16;7358625;19;20006;-59
2022/09/18 09:25:58;;;;;;;0.00;0.00;;;;;;;20.11;49.99;101823.84;7359148;19;20011;-58
2022/09/18 09:28:35;;;;;;;0.00;0.00;;;;;;;20.43;48.81;101829.50;7254726;19;2004489;-59
2022/09/18 09:31:06;;;;;;;0.00;0.00;;;;;;;20.73;47.01;101827.22;7352091;19;20034;-59
2022/09/18 09:34:08;;;;;;;0.00;0.00;;;;;;;21.15;48.78;101829.63;7361411;19;20022;-57
2022/09/18 09:36:35;;;;;;;0.00;0.00;;;;;;;21.30;44.98;101822.75;7258141;19;2004365;-59
2022/09/18 09:39:04;;;;;;;;;;;;;;;21.81;48.68;101828.16;7348677;19;20014;-59
2022/09/18 09:42:10;;;;;;;0.00;0.00;;;;;;;22.15;47.09;101832.56;7357969;19;20262;-59
2022/09/18 09:44:42;;;;;;;0.00;0.00;;;;;;;22.37;43.82;101821.66;7260131;19;2004490;-59
2022/09/18 09:47:23;;;;;;;0.00;0.00;;;;;;;22.73;45.24;101813.44;7360734;19;20018;-59
2022/09/18 09:50:07;;;;;;;0.00;0.00;;;;;;;23.00;45.31;101822.53;7361364;19;20010;-59
2022/09/18 09:52:35;;;;;;;0.00;0.00;;;;;;;23.13;41.65;101816.53;7360092;19;20014;-59
2022/09/18 09:55:22;;;;;;;0.08;0.08;;;;;;;23.47;44.03;101810.94;7360774;19;23152;-58
2022/09/18 09:58:14;;;;;;;0.00;0.00;;;;;;;23.66;42.17;101805.38;7360919;19;20011;-59
2022/09/18 10:00:57;;;;;;;0.00;0.00;;;;;;;23.85;41.12;101809.63;7257715;19;2004343;-60
2022/09/18 10:03:30;;;;;;;0.00;0.00;;;;;;;23.96;40.26;101810.66;7364321;19;20038;-60
2022/09/18 10:06:17;;;;;;;0.00;0.00;;;;;;;24.17;40.99;101810.31;7358684;19;20540;-59
2022/09/18 10:08:52;;;;;;;0.00;0.00;;;;;;;24.32;39.70;101804.84;7360751;19;20016;-58
2022/09/18 10:11:18;;;;;;;0.10;0.10;;;;;;;24.42;38.75;101807.84;7360322;19;20017;-59
2022/09/18 10:13:52;;;;;;;0.10;0.10;;;;;;;24.70;38.33;101817.63;7363159;19;20018;-59
2022/09/18 10:16:22;;;;;;;0.05;0.05;;;;;;;24.90;38.28;101811.00;7359975;19;20007;-59
2022/09/18 10:18:48;;;;;;;0.00;0.00;;;;;;;24.98;36.88;101813.16;7359867;19;20491;-59
2022/09/18 10:21:16;;;;;;;0.05;0.05;;;;;;;25.18;35.87;101811.88;7359584;19;20664;-60
2022/09/18 10:23:47;;;;;;;0.03;0.03;;;;;;;25.35;36.66;101817.81;7359096;19;20010;-59
2022/09/18 10:26:22;;;;;;;0.00;0.00;;;;;;;25.61;37.88;101808.00;7358156;19;20030;-58
2022/09/18 10:28:47;;;;;;;0.10;0.10;;;;;;;25.72;36.37;101817.13;7360049;19;20017;-59
2022/09/18 10:31:15;;;;;;;0.00;0.00;;;;;;;25.91;35.38;101809.56;7358361;19;20657;-59
2022/09/18 10:33:44;;;;;;;;;;;;;;;26.39;40.31;101810.56;7362757;19;20014;-59
2022/09/18 10:36:37;;;;;;;0.10;0.10;;;;;;;26.58;37.76;101809.28;7360888;19;19978;-58
2022/09/18 10:39:35;;;;;;;0.00;0.00;;;;;;;26.79;37.78;101815.75;7256238;19;2004506;-59
2022/09/18 10:42:03;;;;;;;0.03;0.03;;;;;;;26.80;33.33;101809.41;7253746;19;2004370;-59
2022/09/18 10:44:34;;;;;;;0.00;0.00;;;;;;;27.05;33.76;101821.88;7355353;19;20003;-56
2022/09/18 10:47:05;;;;;;;0.00;0.00;;;;;;;27.32;34.46;101815.41;7360066;19;20479;-57
2022/09/18 10:49:36;;;;;;;0.10;0.10;;;;;;;27.48;32.86;101813.31;7355452;19;20011;-59
2022/09/18 10:52:20;;;;;;;0.10;0.10;;;;;;;27.98;34.88;101813.94;7361941;19;20014;-58
2022/09/18 10:55:04;;;;;;;0.10;0.10;;;;;;;28.32;34.44;101814.78;7363857;19;20014;-59
2022/09/18 10:57:33;;;;;;;0.10;0.10;;;;;;;28.55;31.94;101812.97;7358601;19;20010;-59
2022/09/18 11:00:00;;;;;;;0.00;0.00;;;;;;;28.74;30.34;101811.44;7363704;19;20006;-59
2022/09/18 11:02:31;;;;;;;0.10;0.10;;;;;;;29.11;31.31;101814.69;7365677;19;20017;-59
2022/09/18 11:04:56;;;;;;;0.00;0.00;;;;;;;29.31;29.22;101810.31;7364946;19;20013;-59
2022/09/18 11:07:24;;;;;;;0.00;0.00;;;;;;;29.62;30.46;101820.19;7368002;19;20010;-60
2022/09/18 11:09:50;;;;;;;0.10;0.10;;;;;;;29.81;28.03;101815.94;7365727;19;20344;-59
2022/09/18 11:12:19;;;;;;;0.00;0.00;;;;;;;30.09;30.24;101817.91;7365253;19;20022;-58
2022/09/18 11:14:50;;;;;;;0.10;0.10;;;;;;;30.30;30.86;101825.97;7362662;19;20950;-58
2022/09/18 11:17:28;;;;;;;0.05;0.05;;;;;;;30.61;29.93;101824.06;7365218;19;20042;-57
2022/09/18 11:19:56;;;;;;;0.00;0.00;;;;;;;30.67;28.46;101828.94;7362830;19;20014;-57
2022/09/18 11:22:40;;;;;;;0.10;0.10;;;;;;;31.01;30.31;101825.88;7363772;19;20021;-56
2022/09/18 11:25:26;;;;;;;0.05;0.05;;;;;;;31.21;30.13;101829.44;7363246;19;20006;-57
2022/09/18 11:27:55;;;;;;;0.00;0.00;;;;;;;31.20;26.47;101825.06;7361331;19;20007;-58
2022/09/18 11:30:23;;;;;;;0.10;0.10;;;;;;;31.35;27.92;101818.25;7363159;19;20009;-58
2022/09/18 11:32:53;;;;;;;0.10;0.10;;;;;;;31.48;27.65;101823.38;7362320;19;20086;-54
2022/09/18 11:35:21;;;;;;;0.10;0.10;;;;;;;31.55;25.60;101811.00;7363483;19;20014;-58
2022/09/18 11:37:51;;;;;;;0.10;0.10;;;;;;;31.71;26.89;101827.44;7365583;19;20826;-55
2022/09/18 11:40:19;;;;;;;0.10;0.10;;;;;;;31.82;26.12;101825.59;7351093;19;20018;-58
2022/09/18 11:42:47;;;;;;;0.10;0.10;;;;;;;31.81;25.27;101818.47;7364761;19;20021;-56